Time;durP1;ratioP1;P1;durP2;ratioP2;P2;SDS_P1;SDS_P2;PMS_P1;PMS_P2;Temp;Humidity;BMP_temperature;BMP_pressure;BME280_temperature;BME280_humidity;BME280_pressure;Samples;Min_cycle;Max_cycle;Signal;HPM_P1;HPM_P2
2021/08/10 00:03:27;;;;;;;;;;;22.20;49.20;;;;;;8363756;28;19919;-46
2021/08/10 00:07:27;;;;;;;;;;;22.20;49.20;;;;;;8364529;28;19921;-45
2021/08/10 00:11:28;;;;;;;;;;;22.20;49.20;;;;;;8363401;28;19925;-45
2021/08/10 00:15:28;;;;;;;;;;;22.20;49.20;;;;;;8363035;28;19917;-45
2021/08/10 00:19:29;;;;;;;;;;;22.20;49.20;;;;;;8363358;28;20288;-45
2021/08/10 00:23:29;;;;;;;;;;;22.20;49.20;;;;;;8364201;28;19924;-45
2021/08/10 00:27:30;;;;;;;;;;;22.20;49.20;;;;;;8362772;28;19959;-47
2021/08/10 00:31:30;;;;;;;;;;;22.20;49.20;;;;;;8363266;28;19928;-44
2021/08/10 00:35:31;;;;;;;;;;;22.20;49.20;;;;;;8363497;28;20404;-46
2021/08/10 00:39:32;;;;;;;;;;;22.20;49.20;;;;;;8368985;28;19913;-46
2021/08/10 00:43:36;;;;;;;;;;;22.10;49.20;;;;;;8369862;28;19998;-46
2021/08/10 00:47:37;;;;;;;;;;;22.10;49.20;;;;;;8369683;28;19917;-43
2021/08/10 00:51:37;;;;;;;;;;;22.10;49.20;;;;;;8368937;28;19924;-45
2021/08/10 00:55:38;;;;;;;;;;;22.10;49.20;;;;;;8369480;28;19913;-45
2021/08/10 00:59:38;;;;;;;;;;;22.10;49.20;;;;;;8369984;28;19913;-46
2021/08/10 01:03:39;;;;;;;;;;;22.10;49.20;;;;;;8369058;28;20374;-45
2021/08/10 01:07:39;;;;;;;;;;;22.10;49.20;;;;;;8369626;28;19921;-48
2021/08/10 01:11:47;;;;;;;;;;;22.10;49.20;;;;;;8369092;28;19936;-46
2021/08/10 01:15:55;;;;;;;;;;;22.10;49.20;;;;;;8369344;28;19966;-46
2021/08/10 01:20:07;;;;;;;;;;;22.10;49.30;;;;;;8368710;28;19917;-47
2021/08/10 01:24:19;;;;;;;;;;;22.10;49.20;;;;;;8368342;28;19923;-45
2021/08/10 01:28:22;;;;;;;;;;;22.10;49.20;;;;;;8368468;28;19917;-45
2021/08/10 01:32:22;;;;;;;;;;;22.10;49.20;;;;;;8368462;28;20004;-45
2021/08/10 01:36:24;;;;;;;;;;;22.10;49.20;;;;;;8368495;28;19913;-46
2021/08/10 01:40:26;;;;;;;;;;;22.10;49.20;;;;;;8368403;28;19923;-45
2021/08/10 01:44:27;;;;;;;;;;;22.00;49.20;;;;;;8368109;28;19978;-45
2021/08/10 01:48:27;;;;;;;;;;;22.00;49.20;;;;;;8366361;28;20378;-45
2021/08/10 01:52:28;;;;;;;;;;;22.00;49.20;;;;;;8368751;28;19962;-45
2021/08/10 01:56:29;;;;;;;;;;;22.00;49.20;;;;;;8367504;28;20476;-46
2021/08/10 02:00:31;;;;;;;;;;;22.00;49.20;;;;;;8367118;28;20023;-46
2021/08/10 02:04:31;;;;;;;;;;;22.00;49.20;;;;;;8367635;28;19928;-46
2021/08/10 02:08:33;;;;;;;;;;;22.00;49.20;;;;;;8367832;28;19921;-46
2021/08/10 02:12:34;;;;;;;;;;;22.00;49.20;;;;;;8367591;28;19916;-45
2021/08/10 02:16:36;;;;;;;;;;;22.00;49.30;;;;;;8367122;28;19924;-45
2021/08/10 02:20:37;;;;;;;;;;;22.00;49.20;;;;;;8367025;28;20433;-46
2021/08/10 02:24:56;;;;;;;;;;;22.00;49.20;;;;;;8366429;28;19952;-45
2021/08/10 02:28:57;;;;;;;;;;;22.00;49.80;;;;;;8367309;28;20307;-46
2021/08/10 02:33:00;;;;;;;;;;;21.90;49.20;;;;;;8366251;28;19924;-45
2021/08/10 02:37:01;;;;;;;;;;;21.90;49.20;;;;;;8366727;28;20322;-45
2021/08/10 02:41:02;;;;;;;;;;;21.90;49.20;;;;;;8366423;28;19920;-45
2021/08/10 02:45:03;;;;;;;;;;;21.90;49.20;;;;;;8365697;28;19917;-45
2021/08/10 02:49:06;;;;;;;;;;;22.00;49.30;;;;;;8366573;28;19921;-45
2021/08/10 02:53:07;;;;;;;;;;;21.90;49.20;;;;;;8365932;28;20009;-46
2021/08/10 02:57:19;;;;;;;;;;;21.90;49.20;;;;;;8365391;28;19924;-45
2021/08/10 03:01:24;;;;;;;;;;;21.90;49.20;;;;;;8365322;28;19913;-45
2021/08/10 03:05:27;;;;;;;;;;;21.90;49.20;;;;;;8366141;28;19923;-45
2021/08/10 03:09:28;;;;;;;;;;;21.90;49.20;;;;;;8365709;28;20053;-45
2021/08/10 03:13:35;;;;;;;;;;;21.90;49.30;;;;;;8365186;28;19943;-45
2021/08/10 03:17:38;;;;;;;;;;;21.90;49.20;;;;;;8364976;28;19923;-45
2021/08/10 03:21:41;;;;;;;;;;;21.80;49.20;;;;;;8364389;28;20332;-45
2021/08/10 03:25:42;;;;;;;;;;;21.80;49.20;;;;;;8365519;28;19970;-45
2021/08/10 03:29:43;;;;;;;;;;;21.90;49.30;;;;;;8364505;28;20381;-45
2021/08/10 03:33:44;;;;;;;;;;;21.80;49.20;;;;;;8364146;28;20341;-45
2021/08/10 03:37:45;;;;;;;;;;;21.80;49.20;;;;;;8364449;28;19913;-46
2021/08/10 03:41:46;;;;;;;;;;;21.80;49.20;;;;;;8364676;28;20377;-45
2021/08/10 03:45:47;;;;;;;;;;;21.80;49.20;;;;;;8364231;28;19917;-45
2021/08/10 03:49:48;;;;;;;;;;;21.80;49.20;;;;;;8364204;28;19978;-45
2021/08/10 03:53:49;;;;;;;;;;;21.80;49.20;;;;;;8363721;28;19975;-45
2021/08/10 03:57:49;;;;;;;;;;;21.80;49.20;;;;;;8364121;28;19916;-45
2021/08/10 04:01:51;;;;;;;;;;;21.80;49.30;;;;;;8364544;28;19916;-45
2021/08/10 04:05:52;;;;;;;;;;;21.80;49.20;;;;;;8363244;28;19920;-45
2021/08/10 04:09:53;;;;;;;;;;;21.80;49.20;;;;;;8363391;28;19925;-45
2021/08/10 04:13:53;;;;;;;;;;;21.70;49.20;;;;;;8363019;28;19912;-45
2021/08/10 04:17:54;;;;;;;;;;;21.70;49.20;;;;;;8363762;28;19917;-46
2021/08/10 04:21:54;;;;;;;;;;;21.70;49.20;;;;;;8363389;28;19916;-46
2021/08/10 04:25:55;;;;;;;;;;;21.70;49.20;;;;;;8363489;28;19939;-46
2021/08/10 04:29:55;;;;;;;;;;;21.70;49.20;;;;;;8362861;28;19995;-45
2021/08/10 04:33:55;;;;;;;;;;;21.70;49.20;;;;;;8363387;28;19913;-45
2021/08/10 04:37:56;;;;;;;;;;;21.70;49.20;;;;;;8363733;28;19924;-45
2021/08/10 04:41:56;;;;;;;;;;;21.70;49.20;;;;;;8362513;28;20419;-45
2021/08/10 04:45:57;;;;;;;;;;;21.70;49.20;;;;;;8362944;28;19944;-45
2021/08/10 04:49:58;;;;;;;;;;;21.70;49.20;;;;;;8362578;28;19943;-45
2021/08/10 04:53:58;;;;;;;;;;;21.70;49.20;;;;;;8362868;28;20012;-45
2021/08/10 04:57:59;;;;;;;;;;;21.70;49.20;;;;;;8362954;28;19916;-46
2021/08/10 05:01:59;;;;;;;;;;;21.70;49.20;;;;;;8362401;28;19913;-45
2021/08/10 05:06:00;;;;;;;;;;;21.60;49.20;;;;;;8362270;28;19916;-45
2021/08/10 05:10:01;;;;;;;;;;;21.70;49.20;;;;;;8363735;28;20333;-46
2021/08/10 05:14:01;;;;;;;;;;;21.60;49.20;;;;;;8362548;28;19921;-45
2021/08/10 05:18:02;;;;;;;;;;;21.60;49.20;;;;;;8362066;28;20007;-45
2021/08/10 05:22:03;;;;;;;;;;;21.70;49.30;;;;;;8362271;28;20333;-46
2021/08/10 05:26:03;;;;;;;;;;;21.70;49.20;;;;;;8368319;28;19919;-46
2021/08/10 05:30:04;;;;;;;;;;;21.60;49.20;;;;;;8368896;28;19937;-45
2021/08/10 05:34:05;;;;;;;;;;;21.60;49.20;;;;;;8368560;28;20003;-46
2021/08/10 05:38:05;;;;;;;;;;;21.60;49.20;;;;;;8368443;28;19999;-45
2021/08/10 05:42:06;;;;;;;;;;;21.60;49.20;;;;;;8367654;28;19924;-45
2021/08/10 05:46:06;;;;;;;;;;;21.60;49.20;;;;;;8369143;28;20395;-45
2021/08/10 05:50:07;;;;;;;;;;;21.60;49.20;;;;;;8367954;28;19925;-45
2021/08/10 05:54:12;;;;;;;;;;;21.60;49.20;;;;;;8367255;28;19924;-45
2021/08/10 05:58:13;;;;;;;;;;;21.60;49.20;;;;;;8368334;28;20007;-46
2021/08/10 06:02:13;;;;;;;;;;;21.60;49.20;;;;;;8368119;28;20281;-46
2021/08/10 06:06:13;;;;;;;;;;;21.60;49.20;;;;;;8366667;28;20008;-45
2021/08/10 06:10:14;;;;;;;;;;;21.60;49.20;;;;;;8366816;28;19978;-46
2021/08/10 06:14:14;;;;;;;;;;;21.60;49.20;;;;;;8366946;28;19939;-47
2021/08/10 06:18:16;;;;;;;;;;;21.60;49.20;;;;;;8366524;28;19921;-46
2021/08/10 06:22:17;;;;;;;;;;;21.60;49.20;;;;;;8367457;28;19920;-45
2021/08/10 06:26:17;;;;;;;;;;;21.60;49.20;;;;;;8366570;28;20007;-48
2021/08/10 06:30:18;;;;;;;;;;;21.60;49.20;;;;;;8365921;28;20301;-45
2021/08/10 06:34:18;;;;;;;;;;;21.60;49.20;;;;;;8365922;28;19912;-48
2021/08/10 06:38:19;;;;;;;;;;;21.60;49.20;;;;;;8367120;28;19940;-46
2021/08/10 06:42:20;;;;;;;;;;;21.60;49.20;;;;;;8365701;28;20393;-45
2021/08/10 06:46:24;;;;;;;;;;;21.60;49.20;;;;;;8366305;28;20385;-45
2021/08/10 06:50:24;;;;;;;;;;;21.60;49.20;;;;;;8365711;28;20015;-45
2021/08/10 06:54:25;;;;;;;;;;;21.60;49.20;;;;;;8365436;28;19916;-45
2021/08/10 06:58:25;;;;;;;;;;;21.60;49.20;;;;;;8366366;28;19924;-45
2021/08/10 07:02:26;;;;;;;;;;;21.70;49.20;;;;;;8365467;28;19948;-46
2021/08/10 07:06:26;;;;;;;;;;;21.70;49.20;;;;;;8364867;28;19923;-45
2021/08/10 07:10:27;;;;;;;;;;;21.70;49.10;;;;;;8365228;28;20289;-45
2021/08/10 07:14:27;;;;;;;;;;;21.70;49.10;;;;;;8365975;28;20336;-49
2021/08/10 07:18:28;;;;;;;;;;;21.70;49.00;;;;;;8364633;28;19916;-46
2021/08/10 07:22:28;;;;;;;;;;;21.80;49.00;;;;;;8365115;28;19917;-46
2021/08/10 07:26:29;;;;;;;;;;;21.80;49.00;;;;;;8364878;28;20007;-45
2021/08/10 07:30:29;;;;;;;;;;;21.80;48.90;;;;;;8364844;28;19928;-45
2021/08/10 07:34:30;;;;;;;;;;;21.80;49.00;;;;;;8364675;28;19921;-46
2021/08/10 07:38:30;;;;;;;;;;;21.70;49.00;;;;;;8364688;28;19942;-45
2021/08/10 07:42:30;;;;;;;;;;;21.70;49.00;;;;;;8364001;28;19928;-45
2021/08/10 07:46:31;;;;;;;;;;;21.70;49.00;;;;;;8363421;28;20289;-45
2021/08/10 07:50:31;;;;;;;;;;;21.70;49.10;;;;;;8364633;28;20385;-46
2021/08/10 07:54:33;;;;;;;;;;;21.70;49.10;;;;;;8363511;28;20281;-48
2021/08/10 07:58:33;;;;;;;;;;;21.70;49.10;;;;;;8363914;28;19917;-44
2021/08/10 08:02:34;;;;;;;;;;;21.70;49.10;;;;;;8363800;28;19920;-45
2021/08/10 08:06:34;;;;;;;;;;;21.70;49.10;;;;;;8363777;28;19913;-46
2021/08/10 08:10:35;;;;;;;;;;;21.80;49.20;;;;;;8363808;28;19936;-45
2021/08/10 08:14:35;;;;;;;;;;;21.80;49.10;;;;;;8363747;28;19975;-47
2021/08/10 08:18:35;;;;;;;;;;;21.80;49.20;;;;;;8363081;28;19942;-46
2021/08/10 08:22:36;;;;;;;;;;;21.80;49.20;;;;;;8364087;28;19912;-46
2021/08/10 08:26:36;;;;;;;;;;;21.80;49.20;;;;;;8363385;28;19940;-45
2021/08/10 08:30:40;;;;;;;;;;;21.80;49.20;;;;;;8362833;28;19970;-44
2021/08/10 08:34:41;;;;;;;;;;;21.80;49.20;;;;;;8363418;28;19971;-47
2021/08/10 08:38:41;;;;;;;;;;;21.90;49.30;;;;;;8363143;28;19960;-45
2021/08/10 08:42:42;;;;;;;;;;;21.80;49.30;;;;;;8363368;28;19975;-47
2021/08/10 08:46:43;;;;;;;;;;;21.90;49.30;;;;;;8363032;28;19924;-47
2021/08/10 08:50:45;;;;;;;;;;;21.90;49.30;;;;;;8363188;28;19964;-46
2021/08/10 08:54:46;;;;;;;;;;;21.90;49.30;;;;;;8338033;28;19916;-48
2021/08/10 08:58:47;;;;;;;;;;;21.90;49.30;;;;;;8366366;28;19912;-44
2021/08/10 09:02:47;;;;;;;;;;;21.90;49.30;;;;;;8369029;28;19916;-45
2021/08/10 09:06:47;;;;;;;;;;;21.90;49.30;;;;;;8369139;28;20388;-45
2021/08/10 09:10:55;;;;;;;;;;;22.00;49.40;;;;;;8368310;28;19959;-48
2021/08/10 09:14:55;;;;;;;;;;;22.00;49.40;;;;;;8368446;28;20404;-48
2021/08/10 09:18:56;;;;;;;;;;;22.00;49.90;;;;;;8369569;28;20008;-45
2021/08/10 09:22:56;;;;;;;;;;;22.00;49.40;;;;;;8368709;28;19917;-45
2021/08/10 09:26:57;;;;;;;;;;;22.00;49.40;;;;;;8368036;28;19917;-44
2021/08/10 09:31:17;;;;;;;;;;;22.10;49.40;;;;;;8368403;28;19990;-45
2021/08/10 09:35:18;;;;;;;;;;;22.10;49.40;;;;;;8368898;28;19913;-45
2021/08/10 09:39:29;;;;;;;;;;;22.10;49.40;;;;;;8367926;28;19917;-46
2021/08/10 09:43:32;;;;;;;;;;;22.10;49.40;;;;;;8368405;28;20478;-47
2021/08/10 09:47:36;;;;;;;;;;;22.10;49.40;;;;;;8362115;28;20375;-45
2021/08/10 09:51:42;;;;;;;;;;;22.20;49.40;;;;;;8367145;28;19929;-45
2021/08/10 09:55:56;;;;;;;;;;;22.20;49.40;;;;;;8368363;28;19912;-45
2021/08/10 09:59:56;;;;;;;;;;;22.20;49.30;;;;;;8367154;28;19917;-47
2021/08/10 10:04:15;;;;;;;;;;;22.20;49.30;;;;;;8367814;28;19921;-46
2021/08/10 10:08:17;;;;;;;;;;;22.20;49.30;;;;;;8367942;28;19966;-45
2021/08/10 10:12:23;;;;;;;;;;;22.20;49.30;;;;;;8364508;28;19933;-45
2021/08/10 10:16:23;;;;;;;;;;;22.30;49.30;;;;;;8371804;28;19913;-48
2021/08/10 10:20:25;;;;;;;;;;;22.30;49.30;;;;;;8367134;28;19924;-47
2021/08/10 10:24:26;;;;;;;;;;;22.30;49.30;;;;;;8366410;28;20366;-45
2021/08/10 10:28:26;;;;;;;;;;;22.30;49.30;;;;;;8367046;28;19951;-45
2021/08/10 10:32:27;;;;;;;;;;;22.30;49.20;;;;;;8367200;28;20331;-45
2021/08/10 10:36:28;;;;;;;;;;;22.30;49.20;;;;;;8366036;28;19917;-45
2021/08/10 10:40:29;;;;;;;;;;;22.30;49.20;;;;;;8366145;28;19917;-46
2021/08/10 10:44:36;;;;;;;;;;;22.40;49.20;;;;;;8366114;28;19913;-45
2021/08/10 10:48:37;;;;;;;;;;;22.40;49.20;;;;;;8365716;28;20293;-46
2021/08/10 10:52:37;;;;;;;;;;;22.40;49.20;;;;;;8364942;28;20007;-48
2021/08/10 10:56:38;;;;;;;;;;;22.40;49.20;;;;;;8365835;28;19917;-45
2021/08/10 11:00:38;;;;;;;;;;;22.40;49.20;;;;;;8365309;28;20441;-46
2021/08/10 11:04:59;;;;;;;;;;;22.40;49.20;;;;;;8365626;28;20450;-45
2021/08/10 11:09:00;;;;;;;;;;;22.50;49.20;;;;;;8365728;28;19925;-47
2021/08/10 11:13:01;;;;;;;;;;;22.50;49.20;;;;;;8365896;28;20008;-45
2021/08/10 11:17:07;;;;;;;;;;;22.50;49.20;;;;;;8365295;28;20488;-45
2021/08/10 11:21:08;;;;;;;;;;;22.50;49.10;;;;;;8364698;28;19921;-46
2021/08/10 11:25:21;;;;;;;;;;;22.60;49.70;;;;;;8365106;28;20409;-45
2021/08/10 11:29:38;;;;;;;;;;;22.60;49.10;;;;;;8366071;28;20015;-48
2021/08/10 11:33:40;;;;;;;;;;;22.60;49.10;;;;;;8364643;28;20007;-48
2021/08/10 11:37:42;;;;;;;;;;;22.60;49.10;;;;;;8364836;28;20354;-49
2021/08/10 11:41:42;;;;;;;;;;;22.60;49.10;;;;;;8364590;28;19921;-45
2021/08/10 11:45:43;;;;;;;;;;;22.60;49.10;;;;;;8364240;28;19919;-45
2021/08/10 11:49:43;;;;;;;;;;;22.70;49.10;;;;;;8365064;28;19920;-45
2021/08/10 11:53:44;;;;;;;;;;;22.70;49.10;;;;;;8364104;28;19938;-47
2021/08/10 11:57:54;;;;;;;;;;;22.70;49.10;;;;;;8363397;28;19921;-45
2021/08/10 12:01:58;;;;;;;;;;;22.70;49.10;;;;;;8363895;28;19917;-47
2021/08/10 12:05:59;;;;;;;;;;;22.80;49.00;;;;;;8364166;28;19912;-48
2021/08/10 12:10:02;;;;;;;;;;;22.80;49.00;;;;;;8363983;28;19978;-48
2021/08/10 12:14:09;;;;;;;;;;;22.80;49.00;;;;;;8363723;28;19964;-45
2021/08/10 12:18:10;;;;;;;;;;;22.80;48.90;;;;;;8363330;28;19960;-46
2021/08/10 12:22:21;;;;;;;;;;;22.80;48.90;;;;;;8363640;28;19917;-45
2021/08/10 12:26:22;;;;;;;;;;;22.90;49.00;;;;;;8364496;28;20298;-48
2021/08/10 12:30:22;;;;;;;;;;;22.90;48.90;;;;;;8362993;28;19925;-46
2021/08/10 12:34:32;;;;;;;;;;;22.90;48.90;;;;;;8362964;28;19917;-45
2021/08/10 12:38:35;;;;;;;;;;;22.90;48.90;;;;;;8363128;28;19913;-45
2021/08/10 12:42:39;;;;;;;;;;;23.00;48.90;;;;;;8363411;28;19916;-44
2021/08/10 12:46:40;;;;;;;;;;;23.00;48.90;;;;;;8363203;28;19999;-44
2021/08/10 12:50:41;;;;;;;;;;;23.00;48.80;;;;;;8362806;28;19921;-44
2021/08/10 12:54:50;;;;;;;;;;;23.10;48.90;;;;;;8362365;28;19927;-44
2021/08/10 12:58:52;;;;;;;;;;;23.10;48.90;;;;;;8362823;28;20020;-45
2021/08/10 13:02:52;;;;;;;;;;;23.10;48.80;;;;;;8363039;28;20332;-45
2021/08/10 13:06:52;;;;;;;;;;;23.00;48.80;;;;;;8363357;28;19920;-44
2021/08/10 13:10:53;;;;;;;;;;;23.10;48.90;;;;;;8362860;28;19929;-45
2021/08/10 13:15:01;;;;;;;;;;;23.10;48.80;;;;;;8362338;28;19924;-43
2021/08/10 13:19:08;;;;;;;;;;;23.10;48.80;;;;;;8363691;28;19917;-44
2021/08/10 13:23:12;;;;;;;;;;;23.10;48.80;;;;;;8362654;28;19917;-45
2021/08/10 13:27:24;;;;;;;;;;;23.20;48.90;;;;;;8362094;28;19921;-44
2021/08/10 13:31:26;;;;;;;;;;;23.20;48.90;;;;;;8362381;28;20320;-45
2021/08/10 13:35:27;;;;;;;;;;;23.20;48.90;;;;;;8362247;28;19917;-45
2021/08/10 13:39:27;;;;;;;;;;;23.20;48.90;;;;;;8362654;28;19955;-44
2021/08/10 13:43:27;;;;;;;;;;;23.20;48.90;;;;;;8362386;28;20277;-46
2021/08/10 13:47:28;;;;;;;;;;;23.20;48.80;;;;;;8367086;28;19924;-49
2021/08/10 13:51:29;;;;;;;;;;;23.20;48.80;;;;;;8367645;28;19924;-46
2021/08/10 13:55:29;;;;;;;;;;;23.20;48.80;;;;;;8369175;28;19920;-48
2021/08/10 13:59:29;;;;;;;;;;;23.20;48.70;;;;;;8367708;28;19921;-46
2021/08/10 14:03:31;;;;;;;;;;;23.20;48.80;;;;;;8367263;28;19920;-46
2021/08/10 14:07:31;;;;;;;;;;;23.20;48.90;;;;;;8367987;28;19925;-46
2021/08/10 14:11:32;;;;;;;;;;;23.30;48.90;;;;;;8367092;28;20007;-45
2021/08/10 14:15:32;;;;;;;;;;;23.20;48.90;;;;;;8367460;28;20278;-44
2021/08/10 14:19:33;;;;;;;;;;;23.30;48.90;;;;;;8367257;28;19917;-47
2021/08/10 14:23:33;;;;;;;;;;;23.30;48.80;;;;;;8367068;28;20306;-45
2021/08/10 14:27:34;;;;;;;;;;;23.30;48.80;;;;;;8366539;28;20399;-45
2021/08/10 14:31:34;;;;;;;;;;;23.30;48.70;;;;;;8367639;28;19921;-45
2021/08/10 14:35:36;;;;;;;;;;;23.30;48.80;;;;;;8366644;28;19945;-45
2021/08/10 14:39:37;;;;;;;;;;;23.30;48.80;;;;;;8366041;28;19942;-45
2021/08/10 14:43:38;;;;;;;;;;;23.30;48.80;;;;;;8366658;28;19917;-44
2021/08/10 14:47:38;;;;;;;;;;;23.30;48.80;;;;;;8366693;28;20358;-44
2021/08/10 14:51:39;;;;;;;;;;;23.40;48.80;;;;;;8365999;28;19974;-46
2021/08/10 14:55:39;;;;;;;;;;;23.40;48.80;;;;;;8365658;28;20378;-45
2021/08/10 14:59:40;;;;;;;;;;;23.40;48.70;;;;;;8366021;28;20427;-45
2021/08/10 15:03:40;;;;;;;;;;;23.40;48.80;;;;;;8365502;28;19931;-43
2021/08/10 15:07:40;;;;;;;;;;;23.40;48.70;;;;;;8366243;28;19920;-42
2021/08/10 15:11:41;;;;;;;;;;;23.40;49.20;;;;;;8365485;28;20409;-46
2021/08/10 15:15:42;;;;;;;;;;;23.40;48.70;;;;;;8364920;28;19966;-44
2021/08/10 15:19:43;;;;;;;;;;;23.40;48.70;;;;;;8365422;28;19917;-44
2021/08/10 15:23:43;;;;;;;;;;;23.50;48.70;;;;;;8365916;28;20381;-46
2021/08/10 15:27:44;;;;;;;;;;;23.50;48.60;;;;;;8364512;28;20358;-44
2021/08/10 15:31:44;;;;;;;;;;;23.50;48.70;;;;;;8364862;28;19925;-47
2021/08/10 15:35:47;;;;;;;;;;;23.50;48.70;;;;;;8364409;28;19924;-45
2021/08/10 15:39:47;;;;;;;;;;;23.50;48.60;;;;;;8364644;28;20357;-46
2021/08/10 15:43:48;;;;;;;;;;;23.50;48.70;;;;;;8365339;28;19913;-44
2021/08/10 15:47:50;;;;;;;;;;;23.60;48.70;;;;;;8364054;28;20338;-45
2021/08/10 15:51:50;;;;;;;;;;;23.50;48.60;;;;;;8364568;28;19925;-46
2021/08/10 15:55:51;;;;;;;;;;;23.50;48.60;;;;;;8364297;28;20373;-44
2021/08/10 15:59:51;;;;;;;;;;;23.60;48.60;;;;;;8364269;28;20023;-44
2021/08/10 16:03:51;;;;;;;;;;;23.60;48.60;;;;;;8364072;28;19928;-44
2021/08/10 16:07:52;;;;;;;;;;;23.60;48.60;;;;;;8363498;28;20345;-44
2021/08/10 16:11:58;;;;;;;;;;;23.60;48.60;;;;;;8363460;28;19947;-46
2021/08/10 16:15:58;;;;;;;;;;;23.60;48.60;;;;;;8369790;28;19920;-45
2021/08/10 16:19:58;;;;;;;;;;;23.60;48.60;;;;;;8363821;28;19924;-45
2021/08/10 16:23:59;;;;;;;;;;;23.60;48.60;;;;;;8363018;28;19956;-45
2021/08/10 16:28:00;;;;;;;;;;;23.60;48.60;;;;;;8363737;28;19940;-46
2021/08/10 16:32:00;;;;;;;;;;;23.60;48.60;;;;;;8363454;28;20432;-45
2021/08/10 16:36:04;;;;;;;;;;;23.60;48.60;;;;;;8363740;28;19917;-45
2021/08/10 16:40:05;;;;;;;;;;;23.60;48.60;;;;;;8363612;28;20289;-44
2021/08/10 16:44:05;;;;;;;;;;;23.60;48.60;;;;;;8363162;28;19913;-44
2021/08/10 16:48:06;;;;;;;;;;;23.60;48.60;;;;;;8362664;28;19923;-45
2021/08/10 16:52:06;;;;;;;;;;;23.60;48.60;;;;;;8363682;28;19974;-46
2021/08/10 16:56:07;;;;;;;;;;;23.60;48.60;;;;;;8362893;28;20442;-45
2021/08/10 17:00:08;;;;;;;;;;;23.60;48.60;;;;;;8362549;28;19939;-44
2021/08/10 17:04:08;;;;;;;;;;;23.60;48.60;;;;;;8362859;28;19917;-44
2021/08/10 17:08:09;;;;;;;;;;;23.60;48.60;;;;;;8363281;28;19943;-45
2021/08/10 17:12:09;;;;;;;;;;;23.60;48.60;;;;;;8363067;28;19932;-45
2021/08/10 17:16:10;;;;;;;;;;;23.60;48.50;;;;;;8362754;28;19923;-45
2021/08/10 17:20:10;;;;;;;;;;;23.70;48.60;;;;;;8365635;28;20391;-45
2021/08/10 17:24:11;;;;;;;;;;;23.60;48.60;;;;;;8368462;28;19941;-44
2021/08/10 17:28:11;;;;;;;;;;;23.60;48.60;;;;;;8369748;28;20376;-45
2021/08/10 17:32:12;;;;;;;;;;;23.60;48.60;;;;;;8368808;28;20352;-46
2021/08/10 17:36:13;;;;;;;;;;;23.60;48.50;;;;;;8368158;28;19982;-45
2021/08/10 17:40:13;;;;;;;;;;;23.60;48.60;;;;;;8368371;28;19920;-45
2021/08/10 17:44:14;;;;;;;;;;;23.60;48.60;;;;;;8368935;28;19939;-44
2021/08/10 17:48:14;;;;;;;;;;;23.60;48.60;;;;;;8367877;28;20281;-45
2021/08/10 17:52:15;;;;;;;;;;;23.60;48.50;;;;;;8368215;28;19964;-46
2021/08/10 17:56:16;;;;;;;;;;;23.70;48.60;;;;;;8367963;28;19913;-45
2021/08/10 18:00:16;;;;;;;;;;;23.60;48.50;;;;;;8367328;28;20393;-45
2021/08/10 18:04:17;;;;;;;;;;;23.60;48.50;;;;;;8368544;28;19923;-45
2021/08/10 18:08:17;;;;;;;;;;;23.60;48.50;;;;;;8367978;28;20438;-45
2021/08/10 18:12:18;;;;;;;;;;;23.60;48.60;;;;;;8366945;28;20004;-45
2021/08/10 18:16:19;;;;;;;;;;;23.60;48.70;;;;;;8354494;28;19921;-45
2021/08/10 18:20:19;;;;;;;;;;;23.60;48.60;;;;;;8356343;28;19959;-47
2021/08/10 18:24:20;;;;;;;;;;;23.60;48.80;;;;;;8366763;28;19952;-44
2021/08/10 18:28:20;;;;;;;;;;;23.60;48.80;;;;;;8367382;28;19916;-44
2021/08/10 18:32:21;;;;;;;;;;;23.60;48.80;;;;;;8365790;28;20405;-44
2021/08/10 18:36:21;;;;;;;;;;;23.60;49.10;;;;;;8366755;28;19917;-45
2021/08/10 18:40:22;;;;;;;;;;;23.60;49.10;;;;;;8366490;28;20305;-44
2021/08/10 18:44:22;;;;;;;;;;;23.60;49.30;;;;;;8366366;28;19972;-45
2021/08/10 18:48:23;;;;;;;;;;;23.60;49.50;;;;;;8366052;28;19917;-42
2021/08/10 18:52:23;;;;;;;;;;;23.60;49.70;;;;;;8366367;28;20412;-43
2021/08/10 18:56:24;;;;;;;;;;;23.60;50.10;;;;;;8366790;28;19920;-42
2021/08/10 19:00:24;;;;;;;;;;;23.60;50.10;;;;;;8365490;28;19923;-42
2021/08/10 19:04:27;;;;;;;;;;;23.60;50.00;;;;;;8365756;28;19963;-45
2021/08/10 19:08:27;;;;;;;;;;;23.60;50.00;;;;;;8366063;28;19927;-45
2021/08/10 19:12:27;;;;;;;;;;;23.60;49.90;;;;;;8365980;28;20381;-46
2021/08/10 19:16:28;;;;;;;;;;;23.60;49.60;;;;;;8365476;28;20007;-45
2021/08/10 19:20:28;;;;;;;;;;;23.60;49.50;;;;;;8365596;28;20011;-44
2021/08/10 19:24:29;;;;;;;;;;;23.60;49.20;;;;;;8364745;28;19955;-45
2021/08/10 19:28:29;;;;;;;;;;;23.60;49.20;;;;;;8365241;28;20374;-45
2021/08/10 19:32:30;;;;;;;;;;;23.60;49.00;;;;;;8365409;28;20313;-45
2021/08/10 19:36:31;;;;;;;;;;;23.60;49.00;;;;;;8364233;28;19920;-45
2021/08/10 19:40:34;;;;;;;;;;;23.60;49.00;;;;;;8364654;28;19917;-45
2021/08/10 19:44:35;;;;;;;;;;;23.60;48.90;;;;;;8364455;28;20293;-46
2021/08/10 19:48:35;;;;;;;;;;;23.60;48.90;;;;;;8364693;28;19916;-45
2021/08/10 19:52:36;;;;;;;;;;;23.60;48.90;;;;;;8364142;28;20382;-45
2021/08/10 19:56:37;;;;;;;;;;;23.60;48.90;;;;;;8364258;28;19928;-45
2021/08/10 20:00:37;;;;;;;;;;;23.50;48.80;;;;;;8363443;28;19921;-45
2021/08/10 20:04:38;;;;;;;;;;;23.60;48.90;;;;;;8364645;28;19913;-44
2021/08/10 20:08:38;;;;;;;;;;;23.60;48.90;;;;;;8363840;28;20365;-44
2021/08/10 20:12:38;;;;;;;;;;;23.60;48.90;;;;;;8363234;28;19925;-46
2021/08/10 20:16:41;;;;;;;;;;;23.50;48.90;;;;;;8362800;28;22588;-45
2021/08/10 20:20:41;;;;;;;;;;;23.60;48.90;;;;;;8363558;28;19919;-45
2021/08/10 20:24:42;;;;;;;;;;;23.50;48.90;;;;;;8363743;28;20012;-45
2021/08/10 20:28:42;;;;;;;;;;;23.50;48.90;;;;;;8363666;28;19927;-46
2021/08/10 20:32:43;;;;;;;;;;;23.50;48.90;;;;;;8363257;28;19929;-46
2021/08/10 20:36:43;;;;;;;;;;;23.60;48.90;;;;;;8362995;28;19917;-45
2021/08/10 20:40:45;;;;;;;;;;;23.50;48.90;;;;;;8364144;28;19913;-45
2021/08/10 20:44:46;;;;;;;;;;;23.50;48.90;;;;;;8363478;28;19970;-45
2021/08/10 20:48:46;;;;;;;;;;;23.60;48.90;;;;;;8363095;28;19916;-45
2021/08/10 20:52:47;;;;;;;;;;;23.60;49.00;;;;;;8362986;28;20054;-44
2021/08/10 20:56:47;;;;;;;;;;;23.50;48.90;;;;;;8369382;28;20340;-44
2021/08/10 21:00:47;;;;;;;;;;;23.60;48.90;;;;;;8369818;28;19924;-45
2021/08/10 21:04:48;;;;;;;;;;;23.50;48.90;;;;;;8369638;28;19945;-46
2021/08/10 21:08:48;;;;;;;;;;;23.50;48.90;;;;;;8369585;28;20011;-45
2021/08/10 21:12:49;;;;;;;;;;;23.50;48.90;;;;;;8369050;28;19928;-46
2021/08/10 21:16:50;;;;;;;;;;;23.50;48.90;;;;;;8370062;28;19995;-45
2021/08/10 21:20:50;;;;;;;;;;;23.50;48.90;;;;;;8368553;28;20004;-46
2021/08/10 21:24:51;;;;;;;;;;;23.50;49.00;;;;;;8368825;28;19916;-44
2021/08/10 21:28:51;;;;;;;;;;;23.50;48.90;;;;;;8368975;28;20011;-43
2021/08/10 21:32:52;;;;;;;;;;;23.50;48.90;;;;;;8368827;28;19921;-44
2021/08/10 21:36:52;;;;;;;;;;;23.50;49.00;;;;;;8368651;28;19921;-44
2021/08/10 21:40:54;;;;;;;;;;;23.50;49.00;;;;;;8368826;28;19921;-44
2021/08/10 21:44:54;;;;;;;;;;;23.50;49.00;;;;;;8367800;28;19924;-44
2021/08/10 21:48:55;;;;;;;;;;;23.50;49.00;;;;;;8368839;28;19912;-45
2021/08/10 21:52:55;;;;;;;;;;;23.40;48.90;;;;;;8368643;28;19927;-45
2021/08/10 21:56:55;;;;;;;;;;;23.50;49.00;;;;;;8367566;28;19959;-45
2021/08/10 22:00:56;;;;;;;;;;;23.40;48.90;;;;;;8367303;28;19970;-45
2021/08/10 22:04:56;;;;;;;;;;;23.50;49.00;;;;;;8366859;28;19928;-45
2021/08/10 22:08:57;;;;;;;;;;;23.40;48.90;;;;;;8367566;28;20040;-44
2021/08/10 22:12:57;;;;;;;;;;;23.40;49.00;;;;;;8367390;28;19947;-44
2021/08/10 22:16:58;;;;;;;;;;;23.40;49.00;;;;;;8367455;28;19917;-45
2021/08/10 22:20:58;;;;;;;;;;;23.50;49.00;;;;;;8366812;28;20019;-48
2021/08/10 22:24:59;;;;;;;;;;;23.40;49.00;;;;;;8367840;28;19913;-48
2021/08/10 22:28:59;;;;;;;;;;;23.40;49.00;;;;;;8367096;28;19917;-44
2021/08/10 22:33:00;;;;;;;;;;;23.40;49.00;;;;;;8366519;28;19925;-45
2021/08/10 22:37:00;;;;;;;;;;;23.40;49.00;;;;;;8367092;28;19917;-44
2021/08/10 22:41:00;;;;;;;;;;;23.40;49.00;;;;;;8365951;28;19913;-45
2021/08/10 22:45:01;;;;;;;;;;;23.40;49.00;;;;;;8366855;28;19920;-45
2021/08/10 22:49:02;;;;;;;;;;;23.40;48.90;;;;;;8366228;28;19963;-44
2021/08/10 22:53:02;;;;;;;;;;;23.40;48.90;;;;;;8366587;28;20351;-45
2021/08/10 22:57:03;;;;;;;;;;;23.40;49.00;;;;;;8365727;28;20388;-45
2021/08/10 23:01:04;;;;;;;;;;;23.40;49.00;;;;;;8366691;28;19974;-44
2021/08/10 23:05:04;;;;;;;;;;;23.40;49.00;;;;;;8366046;28;19999;-45
2021/08/10 23:09:05;;;;;;;;;;;23.40;49.00;;;;;;8365693;28;19929;-45
2021/08/10 23:13:05;;;;;;;;;;;23.40;49.00;;;;;;8365414;28;19992;-46
2021/08/10 23:17:06;;;;;;;;;;;23.40;49.00;;;;;;8365799;28;19917;-45
2021/08/10 23:21:06;;;;;;;;;;;23.40;49.00;;;;;;8364907;28;19916;-45
2021/08/10 23:25:08;;;;;;;;;;;23.40;49.00;;;;;;8365250;28;19916;-46